createdAt,value
2022-12-24T00:01:07.017Z,9.17
2022-12-24T00:03:35.499Z,9.20
2022-12-24T00:06:07.449Z,9.15
2022-12-24T00:08:35.259Z,9.11
2022-12-24T00:11:02.922Z,9.07
2022-12-24T00:13:30.391Z,9.14
2022-12-24T00:15:57.843Z,9.16
2022-12-24T00:18:25.329Z,9.15
2022-12-24T00:20:53.608Z,9.11
2022-12-24T00:23:21.496Z,9.12
2022-12-24T00:25:48.963Z,9.11
2022-12-24T00:28:17.676Z,9.10
2022-12-24T00:30:45.133Z,9.16
2022-12-24T00:33:12.917Z,9.11
2022-12-24T00:35:41.265Z,9.05
2022-12-24T00:38:09.335Z,9.06
2022-12-24T00:40:37.015Z,9.02
2022-12-24T00:43:04.524Z,8.99
2022-12-24T00:45:31.966Z,8.98
2022-12-24T00:47:59.424Z,8.92
2022-12-24T00:50:26.824Z,8.91
2022-12-24T00:52:54.407Z,8.93
2022-12-24T00:55:21.820Z,8.94
2022-12-24T00:57:49.426Z,8.91
2022-12-24T01:00:18.120Z,8.94
2022-12-24T01:02:45.999Z,8.89
2022-12-24T01:05:13.656Z,8.89
2022-12-24T01:07:44.457Z,8.94
2022-12-24T01:10:14.178Z,8.95
2022-12-24T01:12:42.436Z,8.98
2022-12-24T01:15:11.511Z,8.94
2022-12-24T01:17:39.432Z,8.98
2022-12-24T01:20:11.401Z,8.91
2022-12-24T01:22:38.925Z,8.91
2022-12-24T01:25:06.611Z,8.99
2022-12-24T01:27:34.160Z,9.02
2022-12-24T01:30:01.696Z,8.96
2022-12-24T01:32:29.267Z,8.89
2022-12-24T01:34:56.682Z,8.90
2022-12-24T01:37:24.210Z,8.89
2022-12-24T01:39:51.917Z,8.87
2022-12-24T01:42:40.618Z,8.86
2022-12-24T01:45:39.885Z,8.90
2022-12-24T01:48:29.914Z,8.93
2022-12-24T01:51:29.439Z,8.98
2022-12-24T01:54:05.887Z,8.93
2022-12-24T01:56:36.273Z,8.97
2022-12-24T01:59:08.511Z,8.96
2022-12-24T02:01:36.507Z,8.92
2022-12-24T02:04:28.821Z,8.92
2022-12-24T02:06:56.472Z,8.94
2022-12-24T02:09:23.987Z,8.97
2022-12-24T02:11:52.027Z,8.89
2022-12-24T02:14:19.871Z,8.79
2022-12-24T02:16:59.665Z,8.82
2022-12-24T02:20:03.667Z,8.82
2022-12-24T02:22:55.846Z,8.75
2022-12-24T02:25:57.531Z,8.81
2022-12-24T02:28:43.551Z,8.75
2022-12-24T02:31:51.599Z,8.82
2022-12-24T02:34:52.217Z,8.83
2022-12-24T02:37:26.340Z,8.85
2022-12-24T02:40:16.827Z,8.88
2022-12-24T02:42:54.135Z,8.90
2022-12-24T02:45:26.395Z,8.91
2022-12-24T02:47:56.276Z,8.85
2022-12-24T02:50:24.843Z,8.82
2022-12-24T02:52:53.040Z,8.86
2022-12-24T02:55:30.876Z,8.83
2022-12-24T02:57:58.526Z,8.82
2022-12-24T03:00:27.456Z,8.76
2022-12-24T03:03:33.709Z,8.62
2022-12-24T03:06:25.127Z,8.61
2022-12-24T03:08:59.454Z,8.59
2022-12-24T03:11:27.065Z,8.52
2022-12-24T03:13:57.828Z,8.53
2022-12-24T03:16:28.255Z,8.49
2022-12-24T03:18:59.090Z,8.47
2022-12-24T03:21:31.589Z,8.48
2022-12-24T03:23:59.596Z,8.51
2022-12-24T03:26:30.060Z,8.54
2022-12-24T03:28:57.588Z,8.57
2022-12-24T03:31:25.281Z,8.58
2022-12-24T03:33:52.866Z,8.59
2022-12-24T03:36:20.260Z,8.56
2022-12-24T03:38:47.817Z,8.54
2022-12-24T03:41:15.220Z,8.48
2022-12-24T03:43:42.725Z,8.38
2022-12-24T03:46:10.202Z,8.38
2022-12-24T03:48:37.793Z,8.37
2022-12-24T03:51:05.490Z,8.35
2022-12-24T03:53:33.010Z,8.34
2022-12-24T03:56:00.559Z,8.37
2022-12-24T03:58:28.088Z,8.38
2022-12-24T04:00:56.030Z,8.43
2022-12-24T04:03:23.563Z,8.44
2022-12-24T04:06:05.357Z,8.39
2022-12-24T04:08:33.691Z,8.39
2022-12-24T04:11:06.198Z,8.40
2022-12-24T04:13:37.397Z,8.46
2022-12-24T04:16:10.423Z,8.50
2022-12-24T04:18:39.115Z,8.55
2022-12-24T04:21:07.462Z,8.59
2022-12-24T04:23:36.407Z,8.60
2022-12-24T04:26:06.448Z,8.62
2022-12-24T04:28:35.153Z,8.63
2022-12-24T04:31:05.008Z,8.62
2022-12-24T04:33:32.602Z,8.66
2022-12-24T04:36:02.723Z,8.66
2022-12-24T04:38:30.901Z,8.63
2022-12-24T04:41:00.484Z,8.66
2022-12-24T04:43:29.474Z,8.62
2022-12-24T04:46:03.936Z,8.62
2022-12-24T04:48:31.463Z,8.62
2022-12-24T04:51:02.206Z,8.58
2022-12-24T04:53:30.474Z,8.57
2022-12-24T04:55:58.653Z,8.59
2022-12-24T04:58:26.339Z,8.66
2022-12-24T05:00:54.615Z,8.61
2022-12-24T05:03:22.175Z,8.53
2022-12-24T05:05:49.630Z,8.42
2022-12-24T05:08:17.130Z,8.39
2022-12-24T05:10:44.613Z,8.29
2022-12-24T05:13:12.083Z,8.23
2022-12-24T05:15:39.591Z,8.19
2022-12-24T05:18:59.834Z,8.08
2022-12-24T05:21:27.501Z,8.15
2022-12-24T05:24:13.987Z,8.10
2022-12-24T05:26:55.012Z,8.13
2022-12-24T05:29:23.106Z,8.09
2022-12-24T05:31:51.017Z,8.08
2022-12-24T05:34:18.728Z,8.03
2022-12-24T05:36:46.305Z,7.98
2022-12-24T05:39:17.092Z,7.96
2022-12-24T05:41:45.992Z,7.89
2022-12-24T05:44:14.669Z,7.87
2022-12-24T05:46:42.826Z,7.84
2022-12-24T05:49:10.537Z,7.81
2022-12-24T05:51:38.166Z,7.81
2022-12-24T05:54:06.101Z,7.81
2022-12-24T05:56:33.956Z,7.81
2022-12-24T05:59:01.745Z,7.81
2022-12-24T06:01:29.753Z,7.79
2022-12-24T06:03:58.257Z,7.75
2022-12-24T06:06:28.032Z,7.72
2022-12-24T06:08:57.074Z,7.67
2022-12-24T06:11:28.352Z,7.71
2022-12-24T06:13:56.088Z,7.65
2022-12-24T06:16:25.993Z,7.64
2022-12-24T06:18:54.491Z,7.61
2022-12-24T06:21:22.255Z,7.57
2022-12-24T06:23:49.937Z,7.55
2022-12-24T06:26:19.667Z,7.49
2022-12-24T06:28:49.042Z,7.45
2022-12-24T06:31:19.778Z,7.41
2022-12-24T06:33:48.871Z,7.34
2022-12-24T06:36:22.084Z,7.30
2022-12-24T06:38:50.228Z,7.28
2022-12-24T06:41:18.778Z,7.27
2022-12-24T06:43:47.809Z,7.26
2022-12-24T06:46:16.605Z,7.23
2022-12-24T06:48:45.376Z,7.30
2022-12-24T06:51:14.416Z,7.28
2022-12-24T06:53:42.218Z,7.33
2022-12-24T06:56:12.508Z,7.36
2022-12-24T06:58:40.982Z,7.40
2022-12-24T07:01:11.092Z,7.46
2022-12-24T07:03:39.082Z,7.53
2022-12-24T07:06:07.466Z,7.65
2022-12-24T07:08:36.486Z,7.72
2022-12-24T07:11:04.860Z,7.68
2022-12-24T07:13:34.499Z,7.68
2022-12-24T07:16:04.115Z,7.67
2022-12-24T07:18:32.212Z,7.66
2022-12-24T07:21:00.127Z,7.70
2022-12-24T07:23:27.658Z,7.67
2022-12-24T07:25:55.360Z,7.70
2022-12-24T07:28:27.922Z,7.83
2022-12-24T07:30:57.324Z,7.85
2022-12-24T07:33:26.183Z,7.82
2022-12-24T07:36:04.365Z,7.80
2022-12-24T07:38:32.722Z,7.77
2022-12-24T07:41:00.514Z,7.83
2022-12-24T07:43:28.548Z,7.98
2022-12-24T07:45:58.180Z,8.09
2022-12-24T07:48:28.174Z,8.28
2022-12-24T07:50:56.744Z,8.46
2022-12-24T07:53:25.562Z,8.39
2022-12-24T07:55:53.327Z,8.25
2022-12-24T07:58:21.455Z,8.07
2022-12-24T08:00:48.989Z,8.02
2022-12-24T08:03:22.791Z,7.98
2022-12-24T08:05:52.741Z,7.89
2022-12-24T08:08:20.779Z,7.88
2022-12-24T08:10:48.635Z,7.82
2022-12-24T08:13:16.722Z,7.80
2022-12-24T08:15:45.700Z,7.85
2022-12-24T08:18:13.195Z,7.89
2022-12-24T08:20:41.812Z,7.90
2022-12-24T08:23:09.706Z,7.93
2022-12-24T08:25:37.533Z,7.97
2022-12-24T08:28:05.887Z,7.91
2022-12-24T08:30:33.789Z,7.95
2022-12-24T08:33:01.599Z,7.91
2022-12-24T08:35:29.294Z,7.93
2022-12-24T08:37:57.317Z,7.90
2022-12-24T08:40:24.966Z,7.91
2022-12-24T08:42:52.883Z,7.93
2022-12-24T08:45:20.929Z,7.96
2022-12-24T08:47:48.461Z,8.01
2022-12-24T08:50:15.958Z,8.04
2022-12-24T08:52:43.597Z,8.09
2022-12-24T08:55:11.060Z,8.11
2022-12-24T08:57:38.951Z,8.13
2022-12-24T09:00:08.186Z,8.16
2022-12-24T09:02:36.106Z,8.16
2022-12-24T09:05:04.068Z,8.26
2022-12-24T09:07:31.644Z,8.29
2022-12-24T09:09:59.125Z,8.29
2022-12-24T09:12:26.652Z,8.37
2022-12-24T09:14:59.510Z,8.40
2022-12-24T09:17:30.603Z,8.42
2022-12-24T09:19:58.325Z,8.40
2022-12-24T09:22:25.969Z,8.45
2022-12-24T09:24:56.592Z,8.49
2022-12-24T09:27:24.188Z,8.57
2022-12-24T09:29:51.653Z,8.61
2022-12-24T09:32:19.377Z,8.62
2022-12-24T09:34:46.959Z,8.71
2022-12-24T09:37:14.506Z,8.93
2022-12-24T09:39:41.994Z,9.00
2022-12-24T09:42:33.533Z,9.00
2022-12-24T09:45:19.947Z,9.09
2022-12-24T09:47:53.706Z,9.17
2022-12-24T09:50:53.187Z,9.13
2022-12-24T09:54:00.281Z,9.30
2022-12-24T09:56:33.718Z,9.29
2022-12-24T09:59:04.106Z,9.38
2022-12-24T10:01:34.556Z,9.35
2022-12-24T10:04:11.902Z,9.13
2022-12-24T10:06:45.088Z,8.93
2022-12-24T10:09:33.286Z,8.84
2022-12-24T10:12:08.445Z,8.74
2022-12-24T10:14:54.137Z,8.63
2022-12-24T10:17:36.010Z,8.59
2022-12-24T10:20:25.215Z,8.72
2022-12-24T10:23:35.505Z,8.78
2022-12-24T10:26:24.351Z,8.82
2022-12-24T10:29:23.760Z,8.87
2022-12-24T10:31:57.515Z,8.92
2022-12-24T10:34:31.755Z,8.98
2022-12-24T10:37:03.098Z,9.08
2022-12-24T10:39:30.904Z,9.06
2022-12-24T10:42:00.839Z,9.08
2022-12-24T10:44:32.664Z,9.11
2022-12-24T10:47:00.213Z,9.06
2022-12-24T10:49:38.285Z,9.13
2022-12-24T10:52:11.096Z,9.23
2022-12-24T10:55:00.128Z,9.38
2022-12-24T10:57:27.826Z,9.40
2022-12-24T10:59:57.031Z,9.40
2022-12-24T11:02:39.097Z,9.34
2022-12-24T11:05:34.668Z,9.27
2022-12-24T11:08:12.871Z,9.29
2022-12-24T11:10:54.191Z,9.22
2022-12-24T11:13:39.882Z,9.23
2022-12-24T11:16:25.252Z,9.20
2022-12-24T11:19:02.494Z,9.12
2022-12-24T11:21:36.733Z,9.01
2022-12-24T11:24:13.652Z,9.07
2022-12-24T11:26:44.589Z,9.11
2022-12-24T11:29:15.050Z,9.02
2022-12-24T11:31:44.931Z,9.12
2022-12-24T11:34:33.026Z,9.10
2022-12-24T11:37:21.017Z,8.85
2022-12-24T11:40:01.681Z,8.54
2022-12-24T11:42:37.173Z,8.42
2022-12-24T11:45:18.053Z,8.34
2022-12-24T11:47:46.389Z,8.38
2022-12-24T11:50:33.159Z,8.43
2022-12-24T11:53:03.566Z,8.44
2022-12-24T11:55:50.788Z,8.48
2022-12-24T11:58:42.786Z,8.55
2022-12-24T12:01:17.680Z,8.53
2022-12-24T12:04:13.909Z,8.56
2022-12-24T12:06:47.287Z,8.59
2022-12-24T12:09:29.249Z,8.60
2022-12-24T12:12:07.700Z,8.62
2022-12-24T12:14:48.394Z,8.82
2022-12-24T12:17:41.617Z,9.09
2022-12-24T12:20:12.277Z,9.16
2022-12-24T12:22:49.098Z,9.17
2022-12-24T12:25:25.825Z,9.14
2022-12-24T12:27:56.359Z,9.09
2022-12-24T12:30:25.800Z,9.05
2022-12-24T12:33:14.351Z,9.10
2022-12-24T12:35:44.345Z,9.08
2022-12-24T12:38:17.298Z,9.10
2022-12-24T12:41:09.518Z,9.06
2022-12-24T12:43:57.869Z,9.11
2022-12-24T12:46:48.651Z,9.05
2022-12-24T12:49:53.667Z,9.03
2022-12-24T12:52:56.349Z,9.03
2022-12-24T12:55:38.652Z,9.03
2022-12-24T12:58:18.795Z,9.06
2022-12-24T13:00:49.717Z,9.08
2022-12-24T13:03:51.797Z,9.09
2022-12-24T13:06:19.225Z,9.13
2022-12-24T13:08:58.612Z,9.10
2022-12-24T13:11:44.258Z,9.17
2022-12-24T13:14:48.788Z,9.21
2022-12-24T13:17:28.357Z,9.22
2022-12-24T13:20:09.040Z,9.26
2022-12-24T13:22:36.789Z,9.32
2022-12-24T13:25:04.814Z,9.44
2022-12-24T13:27:34.827Z,9.51
2022-12-24T13:30:24.110Z,9.50
2022-12-24T13:32:54.614Z,9.46
2022-12-24T13:35:22.083Z,9.36
2022-12-24T13:37:50.643Z,9.30
2022-12-24T13:40:25.282Z,9.28
2022-12-24T13:43:01.968Z,9.17
2022-12-24T13:45:29.873Z,9.10
2022-12-24T13:48:06.264Z,8.97
2022-12-24T13:50:45.884Z,8.83
2022-12-24T13:53:34.193Z,8.78
2022-12-24T13:56:13.450Z,8.77
2022-12-24T13:58:45.735Z,8.74
2022-12-24T14:01:20.142Z,8.70
2022-12-24T14:03:49.143Z,8.67
2022-12-24T14:06:26.466Z,8.65
2022-12-24T14:09:14.228Z,8.57
2022-12-24T14:11:54.016Z,8.53
2022-12-24T14:14:37.999Z,8.49
2022-12-24T14:17:25.977Z,8.55
2022-12-24T14:19:57.471Z,8.50
2022-12-24T14:22:30.662Z,8.50
2022-12-24T14:25:01.570Z,8.46
2022-12-24T14:28:05.555Z,8.37
2022-12-24T14:30:33.377Z,8.29
2022-12-24T14:33:00.860Z,8.20
2022-12-24T14:35:35.645Z,8.18
2022-12-24T14:38:21.527Z,8.19
2022-12-24T14:41:15.401Z,8.19
2022-12-24T14:44:10.457Z,8.21
2022-12-24T14:47:01.837Z,8.17
2022-12-24T14:49:35.138Z,8.13
2022-12-24T14:52:18.437Z,8.07
2022-12-24T14:54:56.223Z,8.03
2022-12-24T14:57:26.464Z,7.96
2022-12-24T14:59:56.536Z,7.99
2022-12-24T15:02:50.137Z,7.86
2022-12-24T15:05:20.531Z,7.80
2022-12-24T15:07:56.587Z,7.77
2022-12-24T15:10:34.460Z,7.63
2022-12-24T15:13:06.359Z,7.52
2022-12-24T15:15:34.670Z,7.43
2022-12-24T15:18:04.690Z,7.38
2022-12-24T15:20:32.736Z,7.33
2022-12-24T15:23:00.368Z,7.33
2022-12-24T15:25:33.436Z,7.28
2022-12-24T15:28:00.940Z,7.26
2022-12-24T15:30:31.391Z,7.18
2022-12-24T15:32:59.139Z,7.12
2022-12-24T15:35:56.876Z,7.06
2022-12-24T15:38:31.918Z,6.98
2022-12-24T15:41:03.252Z,6.97
2022-12-24T15:43:31.909Z,6.95
2022-12-24T15:46:00.583Z,6.90
2022-12-24T15:48:31.505Z,6.95
2022-12-24T15:51:02.835Z,6.98
2022-12-24T15:53:43.926Z,7.00
2022-12-24T15:56:31.648Z,7.01
2022-12-24T15:59:38.353Z,6.99
2022-12-24T16:02:43.686Z,7.01
2022-12-24T16:05:26.350Z,7.02
2022-12-24T16:08:09.759Z,7.01
2022-12-24T16:10:44.310Z,6.98
2022-12-24T16:13:25.437Z,6.94
2022-12-24T16:15:57.428Z,6.94
2022-12-24T16:18:55.962Z,6.96
2022-12-24T16:21:35.632Z,6.92
2022-12-24T16:24:15.089Z,6.91
2022-12-24T16:26:43.860Z,6.94
2022-12-24T16:29:12.130Z,6.96
2022-12-24T16:31:46.117Z,7.01
2022-12-24T16:34:15.733Z,7.09
2022-12-24T16:36:45.254Z,7.16
2022-12-24T16:39:25.179Z,7.13
2022-12-24T16:42:11.701Z,7.10
2022-12-24T16:44:39.874Z,7.05
2022-12-24T16:47:14.694Z,6.99
2022-12-24T16:49:42.262Z,6.89
2022-12-24T16:52:17.967Z,6.83
2022-12-24T16:54:45.493Z,6.75
2022-12-24T16:57:13.240Z,6.71
2022-12-24T16:59:40.819Z,6.62
2022-12-24T17:02:15.038Z,6.58
2022-12-24T17:04:43.650Z,6.52
2022-12-24T17:07:17.204Z,6.41
2022-12-24T17:09:44.844Z,6.34
2022-12-24T17:12:12.373Z,6.29
2022-12-24T17:14:40.499Z,6.27
2022-12-24T17:17:11.111Z,6.24
2022-12-24T17:19:38.599Z,6.23
2022-12-24T17:22:06.023Z,6.20
2022-12-24T17:24:33.575Z,6.23
2022-12-24T17:27:01.013Z,6.19
2022-12-24T17:29:28.658Z,6.18
2022-12-24T17:31:56.061Z,6.22
2022-12-24T17:34:23.665Z,6.19
2022-12-24T17:36:51.191Z,6.23
2022-12-24T17:39:25.663Z,6.18
2022-12-24T17:41:55.198Z,6.19
2022-12-24T17:44:23.350Z,6.20
2022-12-24T17:46:51.104Z,6.23
2022-12-24T17:49:18.701Z,6.25
2022-12-24T17:51:46.984Z,6.27
2022-12-24T17:54:14.456Z,6.29
2022-12-24T17:56:42.183Z,6.31
2022-12-24T17:59:09.660Z,6.36
2022-12-24T18:01:37.324Z,6.37
2022-12-24T18:04:06.205Z,6.42
2022-12-24T18:06:34.376Z,6.45
2022-12-24T18:09:01.867Z,6.49
2022-12-24T18:11:33.134Z,6.51
2022-12-24T18:14:02.556Z,6.55
2022-12-24T18:16:33.711Z,6.55
2022-12-24T18:19:03.676Z,6.49
2022-12-24T18:21:32.968Z,6.45
2022-12-24T18:24:00.671Z,6.41
2022-12-24T18:26:30.067Z,6.38
2022-12-24T18:28:58.935Z,6.31
2022-12-24T18:31:27.301Z,6.20
2022-12-24T18:33:56.085Z,6.16
2022-12-24T18:36:24.344Z,6.10
2022-12-24T18:38:52.375Z,6.07
2022-12-24T18:41:25.799Z,6.01
2022-12-24T18:43:54.493Z,5.97
2022-12-24T18:46:24.377Z,5.98
2022-12-24T18:48:53.146Z,5.94
2022-12-24T18:51:22.520Z,5.92
2022-12-24T18:53:50.541Z,5.87
2022-12-24T18:56:23.655Z,5.80
2022-12-24T18:58:56.165Z,5.73
2022-12-24T19:01:26.806Z,5.70
2022-12-24T19:03:54.861Z,5.68
2022-12-24T19:06:23.537Z,5.68
2022-12-24T19:09:00.878Z,5.68
2022-12-24T19:11:33.801Z,5.63
2022-12-24T19:14:02.964Z,5.58
2022-12-24T19:16:33.417Z,5.55
2022-12-24T19:19:02.503Z,5.49
2022-12-24T19:21:29.928Z,5.49
2022-12-24T19:23:57.493Z,5.48
2022-12-24T19:26:25.346Z,5.45
2022-12-24T19:28:54.325Z,5.43
2022-12-24T19:31:24.898Z,5.49
2022-12-24T19:33:55.085Z,5.51
2022-12-24T19:36:26.110Z,5.60
2022-12-24T19:38:54.187Z,5.73
2022-12-24T19:41:25.291Z,5.85
2022-12-24T19:43:56.151Z,5.89
2022-12-24T19:46:26.374Z,5.93
2022-12-24T19:48:57.515Z,5.94
2022-12-24T19:51:26.744Z,5.98
2022-12-24T19:53:55.605Z,6.01
2022-12-24T19:56:25.099Z,6.01
2022-12-24T19:58:52.980Z,6.02
2022-12-24T20:01:23.710Z,6.02
2022-12-24T20:03:52.646Z,6.01
2022-12-24T20:06:23.056Z,6.03
2022-12-24T20:08:50.706Z,6.06
2022-12-24T20:11:20.777Z,6.02
2022-12-24T20:13:48.448Z,5.96
2022-12-24T20:16:21.116Z,5.92
2022-12-24T20:18:56.857Z,5.87
2022-12-24T20:21:25.303Z,5.84
2022-12-24T20:23:53.090Z,5.81
2022-12-24T20:26:22.700Z,5.82
2022-12-24T20:28:51.517Z,5.77
2022-12-24T20:31:22.501Z,5.74
2022-12-24T20:33:50.624Z,5.72
2022-12-24T20:36:22.025Z,5.72
2022-12-24T20:38:50.001Z,5.72
2022-12-24T20:41:20.079Z,5.66
2022-12-24T20:43:49.098Z,5.62
2022-12-24T20:46:18.729Z,5.59
2022-12-24T20:48:46.598Z,5.58
2022-12-24T20:51:24.416Z,5.56
2022-12-24T20:53:57.898Z,5.51
2022-12-24T20:56:26.101Z,5.48
2022-12-24T20:58:53.878Z,5.43
2022-12-24T21:01:24.876Z,5.41
2022-12-24T21:03:54.320Z,5.34
2022-12-24T21:06:23.529Z,5.29
2022-12-24T21:08:52.277Z,5.25
2022-12-24T21:11:39.883Z,5.20
2022-12-24T21:14:07.860Z,5.17
2022-12-24T21:16:36.673Z,5.16
2022-12-24T21:19:05.319Z,5.18
2022-12-24T21:21:33.102Z,5.17
2022-12-24T21:24:01.059Z,5.13
2022-12-24T21:26:28.549Z,5.12
2022-12-24T21:28:56.200Z,5.11
2022-12-24T21:31:23.903Z,5.13
2022-12-24T21:33:51.497Z,5.18
2022-12-24T21:36:18.991Z,5.17
2022-12-24T21:38:47.226Z,5.15
2022-12-24T21:41:18.320Z,5.12
2022-12-24T21:43:46.375Z,5.09
2022-12-24T21:46:18.772Z,5.13
2022-12-24T21:49:05.047Z,5.07
2022-12-24T21:51:33.294Z,5.06
2022-12-24T21:54:19.446Z,5.03
2022-12-24T21:57:05.720Z,5.02
2022-12-24T21:59:33.343Z,5.00
2022-12-24T22:02:01.363Z,5.00
2022-12-24T22:04:31.030Z,5.01
2022-12-24T22:07:18.073Z,5.04
2022-12-24T22:10:04.241Z,5.06
2022-12-24T22:12:33.569Z,5.13
2022-12-24T22:15:01.271Z,5.13
2022-12-24T22:17:29.089Z,5.14
2022-12-24T22:19:56.838Z,5.17
2022-12-24T22:22:25.583Z,5.21
2022-12-24T22:24:53.139Z,5.22
2022-12-24T22:27:20.806Z,5.23
2022-12-24T22:29:48.511Z,5.26
2022-12-24T22:32:16.048Z,5.34
2022-12-24T22:34:43.586Z,5.33
2022-12-24T22:37:11.161Z,5.36
2022-12-24T22:39:39.301Z,5.36
2022-12-24T22:42:07.015Z,5.35
2022-12-24T22:44:34.537Z,5.37
2022-12-24T22:47:02.134Z,5.35
2022-12-24T22:49:29.639Z,5.36
2022-12-24T22:51:58.306Z,5.41
2022-12-24T22:54:26.059Z,5.36
2022-12-24T22:56:53.628Z,5.33
2022-12-24T22:59:21.151Z,5.31
2022-12-24T23:01:49.522Z,5.34
2022-12-24T23:04:17.250Z,5.31
2022-12-24T23:06:44.880Z,5.33
2022-12-24T23:09:15.938Z,5.31
2022-12-24T23:11:44.857Z,5.27
2022-12-24T23:14:36.309Z,5.24
2022-12-24T23:17:04.681Z,5.35
2022-12-24T23:19:33.761Z,5.40
2022-12-24T23:22:02.983Z,5.38
2022-12-24T23:24:31.442Z,5.38
2022-12-24T23:27:03.455Z,5.32
2022-12-24T23:29:32.547Z,5.23
2022-12-24T23:32:00.603Z,5.17
2022-12-24T23:34:28.130Z,5.12
2022-12-24T23:36:55.579Z,5.12
2022-12-24T23:39:23.249Z,5.15
2022-12-24T23:41:50.711Z,5.17
2022-12-24T23:44:18.312Z,5.22
2022-12-24T23:46:45.817Z,5.21
2022-12-24T23:49:14.791Z,5.23
2022-12-24T23:51:42.338Z,5.25
2022-12-24T23:54:09.957Z,5.27
2022-12-24T23:56:37.842Z,5.37
2022-12-24T23:59:05.374Z,5.39
